createdAt,value
2022-08-08T00:00:54.006Z,5.55
2022-08-08T00:02:58.108Z,5.53
2022-08-08T00:06:04.663Z,5.68
2022-08-08T00:08:37.190Z,5.18
2022-08-08T00:11:23.756Z,5.00
2022-08-08T00:14:17.250Z,4.57
2022-08-08T00:16:44.137Z,5.65
2022-08-08T00:19:31.607Z,4.47
2022-08-08T00:22:21.253Z,4.97
2022-08-08T00:24:55.974Z,4.72
2022-08-08T00:27:32.878Z,3.97
2022-08-08T00:30:11.318Z,4.03
2022-08-08T00:32:47.671Z,4.07
2022-08-08T00:35:52.613Z,4.40
2022-08-08T00:38:51.403Z,4.75
2022-08-08T00:41:55.197Z,4.15
2022-08-08T00:44:50.976Z,4.47
2022-08-08T00:48:02.019Z,3.55
2022-08-08T00:50:35.855Z,3.55
2022-08-08T00:53:43.683Z,3.45
2022-08-08T00:56:23.945Z,3.22
2022-08-08T00:59:18.646Z,3.58
2022-08-08T01:04:01.626Z,3.47
2022-08-08T01:05:59.545Z,3.65
2022-08-08T01:08:58.282Z,3.75
2022-08-08T01:12:08.265Z,3.20
2022-08-08T01:15:00.587Z,3.30
2022-08-08T01:17:53.306Z,3.20
2022-08-08T01:20:35.906Z,3.25
2022-08-08T01:24:02.371Z,3.20
2022-08-08T01:26:30.379Z,3.47
2022-08-08T01:29:01.811Z,3.38
2022-08-08T01:32:17.398Z,3.53
2022-08-08T01:35:29.865Z,3.15
2022-08-08T01:38:11.658Z,3.25
2022-08-08T01:41:27.159Z,2.92
2022-08-08T01:44:33.817Z,3.30
2022-08-08T01:48:16.369Z,2.80
2022-08-08T01:50:20.991Z,4.97
2022-08-08T01:54:20.287Z,3.40
2022-08-08T01:56:31.024Z,3.50
2022-08-08T01:59:21.721Z,3.92
2022-08-08T02:02:05.099Z,3.42
2022-08-08T02:04:43.657Z,3.33
2022-08-08T02:07:41.836Z,3.25
2022-08-08T02:10:45.899Z,3.05
2022-08-08T02:13:52.569Z,3.20
2022-08-08T02:16:48.275Z,2.92
2022-08-08T02:20:07.831Z,3.40
2022-08-08T02:22:54.841Z,3.22
2022-08-08T02:25:46.944Z,3.80
2022-08-08T02:28:43.414Z,3.80
2022-08-08T02:31:58.909Z,3.90
2022-08-08T02:34:39.436Z,4.57
2022-08-08T02:38:00.281Z,5.35
2022-08-08T02:40:35.167Z,5.85
2022-08-08T02:44:45.080Z,6.85
2022-08-08T02:46:50.498Z,6.53
2022-08-08T02:49:51.288Z,6.18
2022-08-08T02:52:42.399Z,7.32
2022-08-08T02:55:40.803Z,6.60
2022-08-08T02:58:59.769Z,7.95
2022-08-08T03:01:55.633Z,6.93
2022-08-08T03:05:08.940Z,6.78
2022-08-08T03:07:58.502Z,6.82
2022-08-08T03:11:13.651Z,6.50
2022-08-08T03:15:57.618Z,9.07
2022-08-08T03:17:12.011Z,9.23
2022-08-08T03:20:13.757Z,9.68
2022-08-08T03:22:56.067Z,9.85
2022-08-08T03:25:36.069Z,10.18
2022-08-08T03:28:30.755Z,10.02
2022-08-08T03:31:22.635Z,10.18
2022-08-08T03:33:54.904Z,10.40
2022-08-08T03:36:30.539Z,9.70
2022-08-08T03:39:14.921Z,9.00
2022-08-08T03:42:13.224Z,9.43
2022-08-08T03:44:39.055Z,10.25
2022-08-08T03:47:19.737Z,9.88
2022-08-08T03:50:01.173Z,9.85
2022-08-08T03:52:44.510Z,8.48
2022-08-08T03:55:55.091Z,8.57
2022-08-08T03:58:31.445Z,8.73
2022-08-08T04:01:24.363Z,8.00
2022-08-08T04:03:58.292Z,9.30
2022-08-08T04:06:29.996Z,9.27
2022-08-08T04:09:11.067Z,8.55
2022-08-08T04:11:58.165Z,7.07
2022-08-08T04:14:35.572Z,7.75
2022-08-08T04:17:06.939Z,7.90
2022-08-08T04:19:44.445Z,6.72
2022-08-08T04:22:16.682Z,6.57
2022-08-08T04:24:50.058Z,4.95
2022-08-08T04:27:19.650Z,5.07
2022-08-08T04:30:18.303Z,5.30
2022-08-08T04:32:52.490Z,4.43
2022-08-08T04:35:29.414Z,3.90
2022-08-08T04:40:34.740Z,3.25
2022-08-08T04:43:03.665Z,3.10
2022-08-08T04:45:38.705Z,3.72
2022-08-08T04:48:07.664Z,3.20
2022-08-08T04:50:40.325Z,3.72
2022-08-08T04:54:36.254Z,3.30
2022-08-08T04:56:06.703Z,4.50
2022-08-08T04:58:36.419Z,3.50
2022-08-08T05:01:10.517Z,4.00
2022-08-08T05:04:10.926Z,3.22
2022-08-08T05:06:36.271Z,3.40
2022-08-08T05:09:07.534Z,4.03
2022-08-08T05:11:40.612Z,3.05
2022-08-08T05:14:15.052Z,3.10
2022-08-08T05:17:00.224Z,3.20
2022-08-08T05:20:09.731Z,3.05
2022-08-08T05:22:32.334Z,3.47
2022-08-08T05:25:01.659Z,2.75
2022-08-08T05:27:33.587Z,2.97
2022-08-08T05:30:11.105Z,3.22
2022-08-08T05:32:45.479Z,3.50
2022-08-08T05:35:18.404Z,3.60
2022-08-08T05:38:11.535Z,2.70
2022-08-08T05:41:02.548Z,4.82
2022-08-08T05:43:39.278Z,5.80
2022-08-08T05:46:38.783Z,5.40
2022-08-08T05:49:11.046Z,6.18
2022-08-08T05:51:48.001Z,4.90
2022-08-08T05:54:27.773Z,5.00
2022-08-08T05:57:12.103Z,5.53
2022-08-08T05:59:53.518Z,7.30
2022-08-08T06:03:05.241Z,6.72
2022-08-08T06:05:52.108Z,6.72
2022-08-08T06:08:32.979Z,5.10
2022-08-08T06:11:06.208Z,5.90
2022-08-08T06:13:47.305Z,6.10
2022-08-08T06:16:19.226Z,7.07
2022-08-08T06:19:05.640Z,6.30
2022-08-08T06:21:48.881Z,6.13
2022-08-08T06:24:31.151Z,7.30
2022-08-08T06:27:06.814Z,7.22
2022-08-08T06:30:20.118Z,8.70
2022-08-08T06:33:01.357Z,7.85
2022-08-08T06:36:07.485Z,7.90
2022-08-08T06:38:29.018Z,8.40
2022-08-08T06:41:13.448Z,8.13
2022-08-08T06:43:47.593Z,9.43
2022-08-08T06:46:30.098Z,7.97
2022-08-08T06:49:00.939Z,8.25
2022-08-08T06:51:46.600Z,8.50
2022-08-08T06:54:17.545Z,7.30
2022-08-08T06:56:51.469Z,7.90
2022-08-08T07:02:27.043Z,5.13
2022-08-08T07:05:06.894Z,3.50
2022-08-08T07:07:55.409Z,4.20
2022-08-08T07:10:26.119Z,3.92
2022-08-08T07:13:02.073Z,5.95
2022-08-08T07:16:11.873Z,7.93
2022-08-08T07:22:18.295Z,8.15
2022-08-08T07:24:59.538Z,6.13
2022-08-08T07:27:47.389Z,5.25
2022-08-08T07:30:35.804Z,4.65
2022-08-08T07:33:59.174Z,4.57
2022-08-08T07:36:32.225Z,7.20
2022-08-08T07:39:02.242Z,7.90
2022-08-08T07:41:58.799Z,9.10
2022-08-08T07:44:37.285Z,9.70
2022-08-08T07:47:10.311Z,8.85
2022-08-08T07:49:40.061Z,6.65
2022-08-08T07:52:13.461Z,6.55
2022-08-08T07:55:07.628Z,6.88
2022-08-08T07:57:55.492Z,9.90
2022-08-08T08:00:30.341Z,10.05
2022-08-08T08:03:20.766Z,10.60
2022-08-08T08:05:54.646Z,8.88
2022-08-08T08:08:52.204Z,8.05
2022-08-08T08:11:38.302Z,7.10
2022-08-08T08:14:17.804Z,7.40
2022-08-08T08:16:51.741Z,7.00
2022-08-08T08:19:45.097Z,6.85
2022-08-08T08:22:31.557Z,6.13
2022-08-08T08:25:10.823Z,7.90
2022-08-08T08:27:46.690Z,6.70
2022-08-08T08:30:16.727Z,7.10
2022-08-08T08:32:52.918Z,5.68
2022-08-08T08:35:29.862Z,5.10
2022-08-08T08:38:17.582Z,4.40
2022-08-08T08:40:51.627Z,3.45
2022-08-08T08:43:26.956Z,4.93
2022-08-08T08:46:03.611Z,5.47
2022-08-08T08:48:36.065Z,6.35
2022-08-08T08:51:06.355Z,5.13
2022-08-08T08:53:40.867Z,5.38
2022-08-08T08:56:28.541Z,4.90
2022-08-08T08:59:05.468Z,4.18
2022-08-08T09:01:45.458Z,4.25
2022-08-08T09:04:31.123Z,5.28
2022-08-08T09:07:14.818Z,5.32
2022-08-08T09:09:57.140Z,6.47
2022-08-08T09:12:36.352Z,4.80
2022-08-08T09:15:06.614Z,7.57
2022-08-08T09:17:52.332Z,7.40
2022-08-08T09:21:58.983Z,5.90
2022-08-08T09:23:24.499Z,5.60
2022-08-08T09:26:26.216Z,5.50
2022-08-08T09:29:07.986Z,4.20
2022-08-08T09:32:14.359Z,3.80
2022-08-08T09:35:05.204Z,3.10
2022-08-08T09:38:04.163Z,3.20
2022-08-08T09:40:46.528Z,5.43
2022-08-08T09:43:24.138Z,5.88
2022-08-08T09:46:11.294Z,5.32
2022-08-08T09:48:50.221Z,5.05
2022-08-08T09:54:05.115Z,6.78
2022-08-08T09:56:44.662Z,6.10
2022-08-08T09:59:50.171Z,4.88
2022-08-08T10:02:58.009Z,6.85
2022-08-08T10:05:39.948Z,6.72
2022-08-08T10:08:09.929Z,7.53
2022-08-08T10:10:41.452Z,8.25
2022-08-08T10:13:26.087Z,7.18
2022-08-08T10:18:35.463Z,8.43
2022-08-08T10:21:24.999Z,8.73
2022-08-08T10:24:02.252Z,6.47
2022-08-08T10:26:57.611Z,5.20
2022-08-08T10:29:25.162Z,5.55
2022-08-08T10:32:17.465Z,5.13
2022-08-08T10:36:06.515Z,7.43
2022-08-08T10:38:13.608Z,6.45
2022-08-08T10:40:46.013Z,5.57
2022-08-08T10:43:18.549Z,5.85
2022-08-08T10:45:58.853Z,6.57
2022-08-08T10:48:38.855Z,5.45
2022-08-08T10:51:24.158Z,5.03
2022-08-08T10:53:58.202Z,6.60
2022-08-08T10:56:34.590Z,5.88
2022-08-08T10:59:08.270Z,6.43
2022-08-08T11:01:39.648Z,6.05
2022-08-08T11:04:11.829Z,6.85
2022-08-08T11:06:41.813Z,6.20
2022-08-08T11:09:19.650Z,4.97
2022-08-08T11:12:13.601Z,4.50
2022-08-08T11:17:59.765Z,5.05
2022-08-08T11:20:12.826Z,3.63
2022-08-08T11:22:41.513Z,5.30
2022-08-08T11:25:14.518Z,5.10
2022-08-08T11:27:49.940Z,4.25
2022-08-08T11:30:27.294Z,3.72
2022-08-08T11:32:58.436Z,3.40
2022-08-08T11:35:38.504Z,3.40
2022-08-08T11:38:37.248Z,3.47
2022-08-08T11:41:01.398Z,4.07
2022-08-08T11:43:38.894Z,3.35
2022-08-08T11:46:13.496Z,3.25
2022-08-08T11:48:46.863Z,3.25
2022-08-08T11:51:37.216Z,3.35
2022-08-08T11:54:31.250Z,3.63
2022-08-08T11:57:17.210Z,4.30
2022-08-08T12:00:05.899Z,5.38
2022-08-08T12:02:51.622Z,4.90
2022-08-08T12:05:22.396Z,4.28
2022-08-08T12:07:58.650Z,3.67
2022-08-08T12:10:34.119Z,3.33
2022-08-08T12:13:07.715Z,4.75
2022-08-08T12:15:52.247Z,3.95
2022-08-08T12:18:30.709Z,4.03
2022-08-08T12:20:59.941Z,4.22
2022-08-08T12:23:43.195Z,4.38
2022-08-08T12:29:21.193Z,4.05
2022-08-08T12:32:13.532Z,4.22
2022-08-08T12:35:01.414Z,3.33
2022-08-08T12:37:41.504Z,3.63
2022-08-08T12:40:22.652Z,3.17
2022-08-08T12:42:53.252Z,3.38
2022-08-08T12:45:57.988Z,3.60
2022-08-08T12:48:36.707Z,2.70
2022-08-08T12:51:20.096Z,2.95
2022-08-08T12:53:59.485Z,2.90
2022-08-08T12:56:34.246Z,3.47
2022-08-08T12:59:02.995Z,3.30
2022-08-08T13:01:38.051Z,2.92
2022-08-08T13:04:25.992Z,3.33
2022-08-08T13:06:55.505Z,3.50
2022-08-08T13:10:00.706Z,3.53
2022-08-08T13:12:31.793Z,2.97
2022-08-08T13:15:10.776Z,3.45
2022-08-08T13:18:09.367Z,3.03
2022-08-08T13:20:27.825Z,2.92
2022-08-08T13:23:31.267Z,2.47
2022-08-08T13:25:49.965Z,2.33
2022-08-08T13:28:28.673Z,2.35
2022-08-08T13:31:04.827Z,2.13
2022-08-08T13:33:42.313Z,2.13
2022-08-08T13:36:12.024Z,2.30
2022-08-08T13:38:40.134Z,2.20
2022-08-08T13:41:15.923Z,2.10
2022-08-08T13:43:49.661Z,2.08
2022-08-08T13:46:28.521Z,2.05
2022-08-08T13:50:33.365Z,1.75
2022-08-08T13:52:23.011Z,2.10
2022-08-08T13:55:06.412Z,1.90
2022-08-08T13:58:03.447Z,1.92
2022-08-08T14:00:24.006Z,1.90
2022-08-08T14:03:07.677Z,1.50
2022-08-08T14:06:01.278Z,1.70
2022-08-08T14:08:30.432Z,1.63
2022-08-08T14:11:03.411Z,1.60
2022-08-08T14:13:34.156Z,1.48
2022-08-08T14:16:16.727Z,1.60
2022-08-08T14:21:49.191Z,1.50
2022-08-08T14:24:32.678Z,1.40
2022-08-08T14:27:01.868Z,1.65
2022-08-08T14:29:39.353Z,1.83
2022-08-08T14:32:16.038Z,1.42
2022-08-08T14:35:04.551Z,1.55
2022-08-08T14:37:43.250Z,1.60
2022-08-08T14:40:31.576Z,1.50
2022-08-08T14:42:59.743Z,1.60
2022-08-08T14:45:46.927Z,1.40
2022-08-08T14:48:34.869Z,1.35
2022-08-08T14:51:07.591Z,1.27
2022-08-08T14:53:37.441Z,1.35
2022-08-08T14:56:25.003Z,1.40
2022-08-08T15:03:53.590Z,1.40
2022-08-08T15:06:33.942Z,1.25
2022-08-08T15:14:45.325Z,1.42
2022-08-08T15:17:17.175Z,1.30
2022-08-08T15:19:54.585Z,1.40
2022-08-08T15:22:24.089Z,1.50
2022-08-08T15:24:53.029Z,1.58
2022-08-08T15:28:04.139Z,1.60
2022-08-08T15:30:15.268Z,1.40
2022-08-08T15:32:43.460Z,1.60
2022-08-08T15:35:12.744Z,1.67
2022-08-08T15:37:44.153Z,2.00
2022-08-08T15:40:15.868Z,1.73
2022-08-08T15:42:49.730Z,2.92
2022-08-08T15:45:18.328Z,1.90
2022-08-08T15:48:15.250Z,1.73
2022-08-08T15:50:57.914Z,1.75
2022-08-08T15:53:28.337Z,1.30
2022-08-08T15:56:12.881Z,1.20
2022-08-08T15:58:45.885Z,1.20
2022-08-08T16:01:18.470Z,1.20
2022-08-08T16:03:51.683Z,1.63
2022-08-08T16:06:27.725Z,1.58
2022-08-08T16:13:00.600Z,1.10
2022-08-08T16:13:07.773Z,1.80
2022-08-08T16:14:35.971Z,1.40
2022-08-08T16:17:05.810Z,1.33
2022-08-08T16:19:59.917Z,1.30
2022-08-08T16:22:30.249Z,1.33
2022-08-08T16:25:05.789Z,1.10
2022-08-08T16:28:22.788Z,1.33
2022-08-08T16:31:50.855Z,1.60
2022-08-08T16:34:20.957Z,1.30
2022-08-08T16:48:38.534Z,1.15
2022-08-08T16:51:08.323Z,1.17
2022-08-08T16:55:02.823Z,1.50
2022-08-08T16:56:24.040Z,1.30
2022-08-08T16:58:56.236Z,1.13
2022-08-08T17:01:25.278Z,1.30
2022-08-08T17:04:03.461Z,1.35
2022-08-08T17:06:43.224Z,1.50
2022-08-08T17:09:15.095Z,1.30
2022-08-08T17:11:48.570Z,1.20
2022-08-08T17:14:27.355Z,1.10
2022-08-08T17:17:03.828Z,1.38
2022-08-08T17:19:40.964Z,1.38
2022-08-08T17:22:10.779Z,1.50
2022-08-08T17:24:40.895Z,1.58
2022-08-08T17:27:12.148Z,1.43
2022-08-08T17:29:43.851Z,1.58
2022-08-08T17:32:28.834Z,1.70
2022-08-08T17:37:51.791Z,1.40
2022-08-08T17:40:21.702Z,1.60
2022-08-08T17:42:50.593Z,1.70
2022-08-08T17:45:22.448Z,1.60
2022-08-08T17:47:51.797Z,1.73
2022-08-08T17:50:30.890Z,1.45
2022-08-08T17:53:03.496Z,1.60
2022-08-08T17:56:06.634Z,1.70
2022-08-08T17:58:27.581Z,1.75
2022-08-08T18:00:59.047Z,1.77
2022-08-08T18:03:27.085Z,1.92
2022-08-08T18:05:57.446Z,2.10
2022-08-08T18:08:41.333Z,1.73
2022-08-08T18:11:16.586Z,2.30
2022-08-08T18:13:46.301Z,2.00
2022-08-08T18:16:23.505Z,1.90
2022-08-08T18:18:57.584Z,1.90
2022-08-08T18:21:59.196Z,2.10
2022-08-08T18:24:21.419Z,1.88
2022-08-08T18:26:53.731Z,2.38
2022-08-08T18:29:33.340Z,1.88
2022-08-08T18:32:07.830Z,2.00
2022-08-08T18:34:37.818Z,2.00
2022-08-08T18:37:08.504Z,2.33
2022-08-08T18:39:41.103Z,2.78
2022-08-08T18:42:14.385Z,2.45
2022-08-08T18:44:55.658Z,2.35
2022-08-08T18:47:27.194Z,1.88
2022-08-08T18:50:00.193Z,2.00
2022-08-08T18:52:36.612Z,2.65
2022-08-08T18:55:10.153Z,2.28
2022-08-08T18:57:43.191Z,2.90
2022-08-08T19:00:20.521Z,2.42
2022-08-08T19:03:05.905Z,1.90
2022-08-08T19:05:45.262Z,2.00
2022-08-08T19:08:24.732Z,1.92
2022-08-08T19:10:59.487Z,1.70
2022-08-08T19:13:52.456Z,2.00
2022-08-08T19:16:20.220Z,1.98
2022-08-08T19:18:57.435Z,1.85
2022-08-08T19:21:33.872Z,1.83
2022-08-08T19:24:34.181Z,1.88
2022-08-08T19:27:07.120Z,1.95
2022-08-08T19:29:42.468Z,1.98
2022-08-08T19:32:19.252Z,1.65
2022-08-08T19:34:56.366Z,1.90
2022-08-08T19:37:43.075Z,1.90
2022-08-08T19:40:31.121Z,1.80
2022-08-08T19:44:03.139Z,2.00
2022-08-08T19:46:22.648Z,2.00
2022-08-08T19:48:50.498Z,2.28
2022-08-08T19:51:50.009Z,2.08
2022-08-08T19:54:21.658Z,2.00
2022-08-08T19:56:49.901Z,2.05
2022-08-08T19:59:22.296Z,1.60
2022-08-08T20:02:02.943Z,1.80
2022-08-08T20:04:35.468Z,2.22
2022-08-08T20:08:26.749Z,1.90
2022-08-08T20:14:10.422Z,1.90
2022-08-08T20:16:00.328Z,1.88
2022-08-08T20:18:52.052Z,2.00
2022-08-08T20:21:17.757Z,1.85
2022-08-08T20:23:57.719Z,1.95
2022-08-08T20:26:30.270Z,1.95
2022-08-08T20:29:06.582Z,1.90
2022-08-08T20:32:06.869Z,2.00
2022-08-08T20:34:29.903Z,2.10
2022-08-08T20:37:02.536Z,2.03
2022-08-08T20:39:41.261Z,2.20
2022-08-08T20:42:28.198Z,2.53
2022-08-08T20:45:01.957Z,2.33
2022-08-08T20:47:35.986Z,2.60
2022-08-08T20:50:09.942Z,2.33
2022-08-08T20:52:39.613Z,2.40
2022-08-08T20:55:22.900Z,2.47
2022-08-08T20:57:58.072Z,2.17
2022-08-08T21:00:26.084Z,2.35
2022-08-08T21:02:54.041Z,2.80
2022-08-08T21:05:23.085Z,2.30
2022-08-08T21:08:37.082Z,2.30
2022-08-08T21:10:40.734Z,2.55
2022-08-08T21:13:08.970Z,2.47
2022-08-08T21:16:05.879Z,2.60
2022-08-08T21:18:24.751Z,2.75
2022-08-08T21:20:56.120Z,2.25
2022-08-08T21:23:58.766Z,2.42
2022-08-08T21:26:21.074Z,2.45
2022-08-08T21:28:56.121Z,2.17
2022-08-08T21:31:53.258Z,1.85
2022-08-08T21:34:18.825Z,2.00
2022-08-08T21:36:52.337Z,1.95
2022-08-08T21:39:24.011Z,2.05
2022-08-08T21:42:09.943Z,1.90
2022-08-08T21:44:38.882Z,2.00
2022-08-08T21:48:07.085Z,1.95
2022-08-08T21:50:18.016Z,2.17
2022-08-08T21:54:27.209Z,2.00
2022-08-08T21:56:26.597Z,1.90
2022-08-08T21:58:24.851Z,1.55
2022-08-08T22:01:00.449Z,1.83
2022-08-08T22:03:32.305Z,1.90
2022-08-08T22:06:02.128Z,1.60
2022-08-08T22:08:37.026Z,1.60
2022-08-08T22:11:56.523Z,1.50
2022-08-08T22:13:58.516Z,1.55
2022-08-08T22:16:27.115Z,1.67
2022-08-08T22:18:56.501Z,2.13
2022-08-08T22:21:24.371Z,2.20
2022-08-08T22:24:02.379Z,3.05
2022-08-08T22:26:31.187Z,2.28
2022-08-08T22:29:13.558Z,2.17
2022-08-08T22:31:58.265Z,2.10
2022-08-08T22:34:32.140Z,2.45
2022-08-08T22:37:00.489Z,2.10
2022-08-08T22:39:39.593Z,2.10
2022-08-08T22:42:24.027Z,1.60
2022-08-08T22:45:01.863Z,1.77
2022-08-08T22:47:52.249Z,2.00
2022-08-08T22:50:27.141Z,1.70
2022-08-08T22:54:29.532Z,2.03
2022-08-08T22:55:58.196Z,2.22
2022-08-08T22:58:55.304Z,2.40
2022-08-08T23:02:02.329Z,2.40
2022-08-08T23:04:14.376Z,2.65
2022-08-08T23:07:03.104Z,2.55
2022-08-08T23:09:39.396Z,2.78
2022-08-08T23:12:39.495Z,2.90
2022-08-08T23:15:10.752Z,2.95
2022-08-08T23:17:53.841Z,2.95
2022-08-08T23:20:27.346Z,3.13
2022-08-08T23:22:56.879Z,2.60
2022-08-08T23:25:24.749Z,2.20
2022-08-08T23:27:54.237Z,2.60
2022-08-08T23:30:23.630Z,2.67
2022-08-08T23:32:52.141Z,2.45
2022-08-08T23:35:20.080Z,2.75
2022-08-08T23:38:01.784Z,3.00
2022-08-08T23:40:31.922Z,3.55
2022-08-08T23:43:04.498Z,3.92
2022-08-08T23:49:00.077Z,4.00
2022-08-08T23:49:03.017Z,4.10
2022-08-08T23:51:12.830Z,2.97
2022-08-08T23:54:39.637Z,3.75
2022-08-08T23:56:46.820Z,2.85
2022-08-08T23:59:17.862Z,2.25
